sensor_id;sensor_type;location;lat;lon;timestamp;pressure;altitude;pressure_sealevel;temperature;humidity
53699;BME280;39591;53.952;27.612;2022-12-07T00:04:54;1010.2;;;-2.8;71.8
53699;BME280;39591;53.952;27.612;2022-12-07T00:09:28;1010.2;;;-2.8;71.8
53699;BME280;39591;53.952;27.612;2022-12-07T00:14:42;1010.1;;;-2.7;71.6
53699;BME280;39591;53.952;27.612;2022-12-07T00:19:20;1010.1;;;-2.7;71.5
53699;BME280;39591;53.952;27.612;2022-12-07T00:24:52;1010;;;-2.6;71.2
53699;BME280;39591;53.952;27.612;2022-12-07T00:29:30;1010;;;-2.6;71.1
53699;BME280;39591;53.952;27.612;2022-12-07T00:34:40;1009.9;;;-2.7;71.1
53699;BME280;39591;53.952;27.612;2022-12-07T00:39:26;1009.9;;;-2.7;71.1
53699;BME280;39591;53.952;27.612;2022-12-07T00:44:28;1009.8;;;-2.7;71.5
53699;BME280;39591;53.952;27.612;2022-12-07T00:49:42;1009.8;;;-2.7;71.6
53699;BME280;39591;53.952;27.612;2022-12-07T00:54:39;1009.8;;;-2.8;71.9
53699;BME280;39591;53.952;27.612;2022-12-07T00:59:42;1009.7;;;-2.8;71.5
53699;BME280;39591;53.952;27.612;2022-12-07T01:04:40;1009.6;;;-2.8;71.2
53699;BME280;39591;53.952;27.612;2022-12-07T01:09:12;1009.5;;;-2.7;71.1
53699;BME280;39591;53.952;27.612;2022-12-07T01:14:56;1009.5;;;-2.8;70.8
53699;BME280;39591;53.952;27.612;2022-12-07T01:19:56;1009.4;;;-2.8;70.8
53699;BME280;39591;53.952;27.612;2022-12-07T01:24:30;1009.4;;;-2.8;70.8
53699;BME280;39591;53.952;27.612;2022-12-07T01:29:44;1009.4;;;-2.7;70.7
53699;BME280;39591;53.952;27.612;2022-12-07T01:34:22;1009.3;;;-2.8;70.8
53699;BME280;39591;53.952;27.612;2022-12-07T01:39:54;1009.2;;;-2.8;70.9
53699;BME280;39591;53.952;27.612;2022-12-07T01:45:15;1009.2;;;-2.9;71
53699;BME280;39591;53.952;27.612;2022-12-07T01:49:24;1009.1;;;-2.9;71.1
53699;BME280;39591;53.952;27.612;2022-12-07T01:54:22;1009.1;;;-2.9;71
53699;BME280;39591;53.952;27.612;2022-12-07T01:59:34;1009.1;;;-2.8;71
53699;BME280;39591;53.952;27.612;2022-12-07T02:04:36;1009.1;;;-2.8;70.5
53699;BME280;39591;53.952;27.612;2022-12-07T02:09:36;1009;;;-2.8;70.6
53699;BME280;39591;53.952;27.612;2022-12-07T02:14:44;1009;;;-2.8;70.8
53699;BME280;39591;53.952;27.612;2022-12-07T02:19:51;1008.9;;;-2.8;70.9
53699;BME280;39591;53.952;27.612;2022-12-07T02:24:14;1008.9;;;-2.8;70.8
53699;BME280;39591;53.952;27.612;2022-12-07T02:29:55;1008.8;;;-2.8;71
53699;BME280;39591;53.952;27.612;2022-12-07T02:34:58;1008.8;;;-2.9;71.3
53699;BME280;39591;53.952;27.612;2022-12-07T02:39:31;1008.7;;;-2.9;71.2
53699;BME280;39591;53.952;27.612;2022-12-07T02:44:42;1008.6;;;-2.9;73
53699;BME280;39591;53.952;27.612;2022-12-07T02:49:12;1008.6;;;-2.9;73.3
53699;BME280;39591;53.952;27.612;2022-12-07T02:54:54;1008.5;;;-2.8;72.6
53699;BME280;39591;53.952;27.612;2022-12-07T02:59:36;1008.5;;;-2.8;72
53699;BME280;39591;53.952;27.612;2022-12-07T03:04:45;1008.4;;;-2.8;71.1
53699;BME280;39591;53.952;27.612;2022-12-07T03:09:33;1008.4;;;-2.8;71.2
53699;BME280;39591;53.952;27.612;2022-12-07T03:14:13;1008.4;;;-2.8;71.2
53699;BME280;39591;53.952;27.612;2022-12-07T03:19:42;1008.3;;;-2.8;71.1
53699;BME280;39591;53.952;27.612;2022-12-07T03:24:43;1008.2;;;-2.7;71
53699;BME280;39591;53.952;27.612;2022-12-07T03:29:25;1008.1;;;-2.7;71.2
53699;BME280;39591;53.952;27.612;2022-12-07T03:34:44;1008;;;-2.7;72.3
53699;BME280;39591;53.952;27.612;2022-12-07T03:39:14;1007.9;;;-2.7;74
53699;BME280;39591;53.952;27.612;2022-12-07T03:44:56;1007.9;;;-2.8;73
53699;BME280;39591;53.952;27.612;2022-12-07T03:49:57;1007.8;;;-2.7;71.9
53699;BME280;39591;53.952;27.612;2022-12-07T03:54:21;1007.7;;;-2.7;72.1
53699;BME280;39591;53.952;27.612;2022-12-07T03:59:36;1007.7;;;-2.7;71.2
53699;BME280;39591;53.952;27.612;2022-12-07T04:04:24;1007.6;;;-2.8;71.6
53699;BME280;39591;53.952;27.612;2022-12-07T04:09:34;1007.7;;;-2.8;71.1
53699;BME280;39591;53.952;27.612;2022-12-07T04:14:56;1007.6;;;-2.8;71.2
53699;BME280;39591;53.952;27.612;2022-12-07T04:19:33;1007.6;;;-2.8;70.9
53699;BME280;39591;53.952;27.612;2022-12-07T04:24:58;1007.6;;;-2.7;71
53699;BME280;39591;53.952;27.612;2022-12-07T04:29:32;1007.6;;;-2.7;70.9
53699;BME280;39591;53.952;27.612;2022-12-07T04:34:42;1007.5;;;-2.8;71.3
53699;BME280;39591;53.952;27.612;2022-12-07T04:39:52;1007.4;;;-2.8;71.8
53699;BME280;39591;53.952;27.612;2022-12-07T04:44:56;1007.4;;;-2.8;71.6
53699;BME280;39591;53.952;27.612;2022-12-07T04:49:56;1007.3;;;-2.8;73.2
53699;BME280;39591;53.952;27.612;2022-12-07T04:54:22;1007.3;;;-2.8;72.2
53699;BME280;39591;53.952;27.612;2022-12-07T04:59:46;1007.3;;;-2.8;71.8
53699;BME280;39591;53.952;27.612;2022-12-07T05:04:36;1007.3;;;-2.7;70.6
53699;BME280;39591;53.952;27.612;2022-12-07T05:09:46;1007.2;;;-2.7;70.3
53699;BME280;39591;53.952;27.612;2022-12-07T05:14:30;1007.2;;;-2.7;70.3
53699;BME280;39591;53.952;27.612;2022-12-07T05:19:12;1007.1;;;-2.6;70.4
53699;BME280;39591;53.952;27.612;2022-12-07T05:24:32;1007;;;-2.6;70.1
53699;BME280;39591;53.952;27.612;2022-12-07T05:29:56;1007;;;-2.6;69.7
53699;BME280;39591;53.952;27.612;2022-12-07T05:34:32;1007;;;-2.6;70.1
53699;BME280;39591;53.952;27.612;2022-12-07T05:39:54;1007;;;-2.6;70.3
53699;BME280;39591;53.952;27.612;2022-12-07T05:44:24;1006.9;;;-2.6;70.8
53699;BME280;39591;53.952;27.612;2022-12-07T05:49:44;1006.8;;;-2.6;70.6
53699;BME280;39591;53.952;27.612;2022-12-07T05:54:46;1006.8;;;-2.6;70.9
53699;BME280;39591;53.952;27.612;2022-12-07T05:59:54;1006.7;;;-2.6;70.5
53699;BME280;39591;53.952;27.612;2022-12-07T06:04:52;1006.7;;;-2.5;70.5
53699;BME280;39591;53.952;27.612;2022-12-07T06:09:23;1006.7;;;-2.6;70.5
53699;BME280;39591;53.952;27.612;2022-12-07T06:14:40;1006.6;;;-2.6;70.5
53699;BME280;39591;53.952;27.612;2022-12-07T06:19:36;1006.5;;;-2.4;71.4
53699;BME280;39591;53.952;27.612;2022-12-07T06:24:48;1006.5;;;-2.4;71
53699;BME280;39591;53.952;27.612;2022-12-07T06:29:34;1006.4;;;-2.4;69.9
53699;BME280;39591;53.952;27.612;2022-12-07T06:34:13;1006.4;;;-2.4;69.9
53699;BME280;39591;53.952;27.612;2022-12-07T06:39:36;1006.4;;;-2.4;69.7
53699;BME280;39591;53.952;27.612;2022-12-07T06:44:56;1006.4;;;-2.5;70
53699;BME280;39591;53.952;27.612;2022-12-07T06:49:32;1006.4;;;-2.4;70
53699;BME280;39591;53.952;27.612;2022-12-07T06:54:54;1006.4;;;-2.3;70.1
53699;BME280;39591;53.952;27.612;2022-12-07T06:59:20;1006.4;;;-2.3;70
53699;BME280;39591;53.952;27.612;2022-12-07T07:04:42;1006.3;;;-2.3;70
53699;BME280;39591;53.952;27.612;2022-12-07T07:09:44;1006.3;;;-2.2;69.9
53699;BME280;39591;53.952;27.612;2022-12-07T07:14:54;1006.2;;;-2.2;70.1
53699;BME280;39591;53.952;27.612;2022-12-07T07:19:54;1006.2;;;-2.2;69.9
53699;BME280;39591;53.952;27.612;2022-12-07T07:24:30;1006.2;;;-2.2;70.2
53699;BME280;39591;53.952;27.612;2022-12-07T07:29:56;1006.1;;;-2.2;70.3
53699;BME280;39591;53.952;27.612;2022-12-07T07:34:36;1006.1;;;-2.1;70.4
53699;BME280;39591;53.952;27.612;2022-12-07T07:39:35;1006;;;-2;70.2
53699;BME280;39591;53.952;27.612;2022-12-07T07:44:30;1005.9;;;-2;71.8
53699;BME280;39591;53.952;27.612;2022-12-07T07:49:22;1005.8;;;-2;70.8
53699;BME280;39591;53.952;27.612;2022-12-07T07:54:32;1005.8;;;-1.9;70.5
53699;BME280;39591;53.952;27.612;2022-12-07T07:59:56;1005.7;;;-1.9;69.5
53699;BME280;39591;53.952;27.612;2022-12-07T08:04:35;1005.8;;;-1.8;70.1
53699;BME280;39591;53.952;27.612;2022-12-07T08:09:54;1005.7;;;-1.8;69.4
53699;BME280;39591;53.952;27.612;2022-12-07T08:19:42;1005.7;;;-1.6;69.3
53699;BME280;39591;53.952;27.612;2022-12-07T08:24:46;1005.7;;;-1.6;69.8
53699;BME280;39591;53.952;27.612;2022-12-07T08:29:56;1005.6;;;-1.5;68.3
53699;BME280;39591;53.952;27.612;2022-12-07T08:34:44;1005.6;;;-1.5;67.6
53699;BME280;39591;53.952;27.612;2022-12-07T08:39:22;1005.5;;;-1.4;67.7
53699;BME280;39591;53.952;27.612;2022-12-07T08:44:46;1005.4;;;-1.4;67.7
53699;BME280;39591;53.952;27.612;2022-12-07T08:49:13;1005.3;;;-1.4;67.2
53699;BME280;39591;53.952;27.612;2022-12-07T08:54:48;1005.2;;;-1.3;66.8
53699;BME280;39591;53.952;27.612;2022-12-07T08:59:32;1005.2;;;-1.2;66.7
53699;BME280;39591;53.952;27.612;2022-12-07T09:04:12;1005.1;;;-1.3;73.3
53699;BME280;39591;53.952;27.612;2022-12-07T09:09:32;1005;;;-1.3;69.4
53699;BME280;39591;53.952;27.612;2022-12-07T09:14:55;1005;;;-1.4;67.8
53699;BME280;39591;53.952;27.612;2022-12-07T09:19:42;1004.9;;;-1.5;67.6
53699;BME280;39591;53.952;27.612;2022-12-07T09:24:56;1004.9;;;-1.5;67.3
53699;BME280;39591;53.952;27.612;2022-12-07T09:29:22;1004.9;;;-1.6;73.7
53699;BME280;39591;53.952;27.612;2022-12-07T09:34:42;1004.8;;;-1.7;73.1
53699;BME280;39591;53.952;27.612;2022-12-07T09:39:54;1004.8;;;-1.7;71.1
53699;BME280;39591;53.952;27.612;2022-12-07T09:44:42;1004.6;;;-1.8;69.1
53699;BME280;39591;53.952;27.612;2022-12-07T09:49:55;1004.6;;;-1.8;68.8
53699;BME280;39591;53.952;27.612;2022-12-07T09:54:22;1004.5;;;-1.8;68.2
53699;BME280;39591;53.952;27.612;2022-12-07T09:59:44;1004.5;;;-1.8;69.3
53699;BME280;39591;53.952;27.612;2022-12-07T10:04:13;1004.5;;;-1.8;70.2
53699;BME280;39591;53.952;27.612;2022-12-07T10:09:46;1004.4;;;-1.6;68.9
53699;BME280;39591;53.952;27.612;2022-12-07T10:14:31;1004.3;;;-1.5;67.6
53699;BME280;39591;53.952;27.612;2022-12-07T10:19:22;1004.3;;;-1.5;68.3
53699;BME280;39591;53.952;27.612;2022-12-07T10:24:34;1004.1;;;-1.5;67.9
53699;BME280;39591;53.952;27.612;2022-12-07T10:29:58;1004;;;-1.5;69.6
53699;BME280;39591;53.952;27.612;2022-12-07T10:34:37;1004;;;-1.5;67.8
53699;BME280;39591;53.952;27.612;2022-12-07T10:39:58;1003.9;;;-1.4;67
53699;BME280;39591;53.952;27.612;2022-12-07T10:44:23;1003.8;;;-1.3;66.6
53699;BME280;39591;53.952;27.612;2022-12-07T10:49:41;1003.7;;;-1.3;66.9
53699;BME280;39591;53.952;27.612;2022-12-07T10:54:25;1003.7;;;-1.2;67.7
53699;BME280;39591;53.952;27.612;2022-12-07T11:00:00;1003.6;;;-1.2;67.3
53699;BME280;39591;53.952;27.612;2022-12-07T11:04:59;1003.6;;;-1.2;66.3
53699;BME280;39591;53.952;27.612;2022-12-07T11:09:22;1003.6;;;-1.1;67.8
53699;BME280;39591;53.952;27.612;2022-12-07T11:14:47;1003.6;;;-0.6;66.4
53699;BME280;39591;53.952;27.612;2022-12-07T11:19:39;1003.5;;;0;63.7
53699;BME280;39591;53.952;27.612;2022-12-07T11:24:49;1003.4;;;0.1;62.9
53699;BME280;39591;53.952;27.612;2022-12-07T11:29:38;1003.4;;;0;62.9
53699;BME280;39591;53.952;27.612;2022-12-07T11:34:15;1003.4;;;-0.3;63.6
53699;BME280;39591;53.952;27.612;2022-12-07T11:39:16;1003.4;;;-0.5;64.3
53699;BME280;39591;53.952;27.612;2022-12-07T11:44:57;1003.4;;;-0.7;65.7
53699;BME280;39591;53.952;27.612;2022-12-07T11:49:37;1003.3;;;-0.9;68
53699;BME280;39591;53.952;27.612;2022-12-07T11:54:56;1003.2;;;-1.1;68.2
53699;BME280;39591;53.952;27.612;2022-12-07T11:59:13;1003.1;;;-1.1;68.8
53699;BME280;39591;53.952;27.612;2022-12-07T12:04:46;1003.1;;;-1;68.4
53699;BME280;39591;53.952;27.612;2022-12-07T12:09:46;1003;;;-0.7;68.1
53699;BME280;39591;53.952;27.612;2022-12-07T12:15:01;1003;;;-0.6;68.8
53699;BME280;39591;53.952;27.612;2022-12-07T12:19:58;1003;;;-0.6;69.9
53699;BME280;39591;53.952;27.612;2022-12-07T12:24:31;1002.9;;;-0.6;67.2
53699;BME280;39591;53.952;27.612;2022-12-07T12:29:50;1002.8;;;-0.8;67.1
53699;BME280;39591;53.952;27.612;2022-12-07T12:34:39;1002.8;;;-0.8;67.6
53699;BME280;39591;53.952;27.612;2022-12-07T12:40:11;1002.8;;;-0.9;67.5
53699;BME280;39591;53.952;27.612;2022-12-07T12:45:04;1002.7;;;-0.9;67.3
53699;BME280;39591;53.952;27.612;2022-12-07T12:49:38;1002.7;;;-1;67.5
53699;BME280;39591;53.952;27.612;2022-12-07T12:54:36;1002.6;;;-1.1;67.9
53699;BME280;39591;53.952;27.612;2022-12-07T12:59:58;1002.6;;;-1.2;68.3
53699;BME280;39591;53.952;27.612;2022-12-07T13:05:14;1002.5;;;-1.3;68.8
53699;BME280;39591;53.952;27.612;2022-12-07T13:09:58;1002.5;;;-1.3;69
53699;BME280;39591;53.952;27.612;2022-12-07T13:15:31;1002.5;;;-1.3;69.2
53699;BME280;39591;53.952;27.612;2022-12-07T13:19:53;1002.5;;;-1.3;69.3
53699;BME280;39591;53.952;27.612;2022-12-07T13:24:12;1002.5;;;-1.3;69.5
53699;BME280;39591;53.952;27.612;2022-12-07T13:29:43;1002.4;;;-1.3;69.5
53699;BME280;39591;53.952;27.612;2022-12-07T13:34:56;1002.4;;;-1.3;69.6
53699;BME280;39591;53.952;27.612;2022-12-07T13:39:24;1002.4;;;-1.3;70.2
53699;BME280;39591;53.952;27.612;2022-12-07T13:44:59;1002.3;;;-1.3;70.8
53699;BME280;39591;53.952;27.612;2022-12-07T13:49:47;1002.4;;;-1.3;70.7
53699;BME280;39591;53.952;27.612;2022-12-07T13:54:49;1002.3;;;-1.3;70.5
53699;BME280;39591;53.952;27.612;2022-12-07T13:59:31;1002.3;;;-1.3;70.8
53699;BME280;39591;53.952;27.612;2022-12-07T14:04:31;1002.2;;;-1.3;70.9
53699;BME280;39591;53.952;27.612;2022-12-07T14:09:52;1002.2;;;-1.3;70.7
53699;BME280;39591;53.952;27.612;2022-12-07T14:14:55;1002.1;;;-1.2;71.6
53699;BME280;39591;53.952;27.612;2022-12-07T14:19:39;1002.1;;;-1.2;72.3
53699;BME280;39591;53.952;27.612;2022-12-07T14:25:01;1002;;;-1.3;72.1
53699;BME280;39591;53.952;27.612;2022-12-07T14:29:29;1002;;;-1.2;72.1
53699;BME280;39591;53.952;27.612;2022-12-07T14:34:52;1002;;;-1.2;72.5
53699;BME280;39591;53.952;27.612;2022-12-07T14:39:56;1002;;;-1.3;72.7
53699;BME280;39591;53.952;27.612;2022-12-07T14:44:42;1001.9;;;-1.3;72.4
53699;BME280;39591;53.952;27.612;2022-12-07T14:49:57;1001.9;;;-1.2;72.1
53699;BME280;39591;53.952;27.612;2022-12-07T14:54:22;1001.8;;;-1.2;72
53699;BME280;39591;53.952;27.612;2022-12-07T14:59:56;1001.7;;;-1.2;72
53699;BME280;39591;53.952;27.612;2022-12-07T15:04:47;1001.7;;;-1.1;72.1
53699;BME280;39591;53.952;27.612;2022-12-07T15:09:46;1001.6;;;-1;72
53699;BME280;39591;53.952;27.612;2022-12-07T15:14:31;1001.6;;;-1.1;72.1
53699;BME280;39591;53.952;27.612;2022-12-07T15:19:25;1001.6;;;-1;72
53699;BME280;39591;53.952;27.612;2022-12-07T15:24:34;1001.5;;;-1;72
53699;BME280;39591;53.952;27.612;2022-12-07T15:29:58;1001.5;;;-0.9;71.9
53699;BME280;39591;53.952;27.612;2022-12-07T15:34:34;1001.5;;;-0.9;73.7
53699;BME280;39591;53.952;27.612;2022-12-07T15:39:57;1001.5;;;-0.8;74.9
53699;BME280;39591;53.952;27.612;2022-12-07T15:44:22;1001.5;;;-0.8;74.7
53699;BME280;39591;53.952;27.612;2022-12-07T15:49:47;1001.5;;;-0.8;74.4
53699;BME280;39591;53.952;27.612;2022-12-07T15:54:37;1001.5;;;-0.7;73.8
53699;BME280;39591;53.952;27.612;2022-12-07T15:59:37;1001.5;;;-0.6;72.5
53699;BME280;39591;53.952;27.612;2022-12-07T16:04:47;1001.4;;;-0.6;72.6
53699;BME280;39591;53.952;27.612;2022-12-07T16:09:13;1001.4;;;-0.6;74.1
53699;BME280;39591;53.952;27.612;2022-12-07T16:14:55;1001.4;;;-0.6;73
53699;BME280;39591;53.952;27.612;2022-12-07T16:19:45;1001.4;;;-0.5;72.5
53699;BME280;39591;53.952;27.612;2022-12-07T16:24:49;1001.5;;;-0.4;72.6
53699;BME280;39591;53.952;27.612;2022-12-07T16:29:33;1001.5;;;-0.4;72.7
53699;BME280;39591;53.952;27.612;2022-12-07T16:34:23;1001.5;;;-0.3;72.6
53699;BME280;39591;53.952;27.612;2022-12-07T16:39:23;1001.5;;;-0.2;72.3
53699;BME280;39591;53.952;27.612;2022-12-07T16:44:53;1001.4;;;-0.2;72.3
53699;BME280;39591;53.952;27.612;2022-12-07T16:49:13;1001.4;;;-0.1;72.1
53699;BME280;39591;53.952;27.612;2022-12-07T16:54:59;1001.3;;;-0.1;72.2
53699;BME280;39591;53.952;27.612;2022-12-07T16:59:25;1001.3;;;0;72.2
53699;BME280;39591;53.952;27.612;2022-12-07T17:04:43;1001.4;;;-0.1;72.3
53699;BME280;39591;53.952;27.612;2022-12-07T17:09:23;1001.4;;;0;72.5
53699;BME280;39591;53.952;27.612;2022-12-07T17:14:57;1001.4;;;0;72.6
53699;BME280;39591;53.952;27.612;2022-12-07T17:19:57;1001.4;;;0.1;72.8
53699;BME280;39591;53.952;27.612;2022-12-07T17:24:15;1001.4;;;0.1;73
53699;BME280;39591;53.952;27.612;2022-12-07T17:29:57;1001.3;;;0.1;73
53699;BME280;39591;53.952;27.612;2022-12-07T17:34:55;1001.3;;;0.2;73.2
53699;BME280;39591;53.952;27.612;2022-12-07T17:39:49;1001.3;;;0.2;73.4
53699;BME280;39591;53.952;27.612;2022-12-07T17:44:31;1001.2;;;0.2;73.4
53699;BME280;39591;53.952;27.612;2022-12-07T17:49:23;1001.2;;;0.3;73.5
53699;BME280;39591;53.952;27.612;2022-12-07T17:54:25;1001.2;;;0.3;73.5
53699;BME280;39591;53.952;27.612;2022-12-07T17:59:55;1001.2;;;0.4;73.7
53699;BME280;39591;53.952;27.612;2022-12-07T18:04:25;1001.2;;;0.4;73.9
53699;BME280;39591;53.952;27.612;2022-12-07T18:09:57;1001.2;;;0.5;73.8
53699;BME280;39591;53.952;27.612;2022-12-07T18:14:13;1001.1;;;0.6;73.8
53699;BME280;39591;53.952;27.612;2022-12-07T18:19:25;1001.1;;;0.7;74
53699;BME280;39591;53.952;27.612;2022-12-07T18:24:47;1001.1;;;0.7;74.1
53699;BME280;39591;53.952;27.612;2022-12-07T18:29:45;1001.1;;;0.9;74.2
53699;BME280;39591;53.952;27.612;2022-12-07T18:34:47;1001.1;;;0.9;74.2
53699;BME280;39591;53.952;27.612;2022-12-07T18:39:13;1001.1;;;1;74.2
53699;BME280;39591;53.952;27.612;2022-12-07T18:44:23;1001.1;;;1;74.2
53699;BME280;39591;53.952;27.612;2022-12-07T18:49:43;1001.1;;;1;74.3
53699;BME280;39591;53.952;27.612;2022-12-07T18:54:47;1001.1;;;1.1;74.4
53699;BME280;39591;53.952;27.612;2022-12-07T18:59:13;1001.1;;;1.1;74.3
53699;BME280;39591;53.952;27.612;2022-12-07T19:04:13;1001.1;;;1.2;74.2
53699;BME280;39591;53.952;27.612;2022-12-07T19:09:13;1001.1;;;1.3;74.3
53699;BME280;39591;53.952;27.612;2022-12-07T19:14:55;1001.1;;;1.3;74.5
53699;BME280;39591;53.952;27.612;2022-12-07T19:19:49;1001.1;;;1.4;74.8
53699;BME280;39591;53.952;27.612;2022-12-07T19:24:57;1001.1;;;1.4;74.8
53699;BME280;39591;53.952;27.612;2022-12-07T19:29:13;1001.1;;;1.5;74.8
53699;BME280;39591;53.952;27.612;2022-12-07T19:34:25;1001.1;;;1.5;74.9
53699;BME280;39591;53.952;27.612;2022-12-07T19:39:23;1001.1;;;1.6;74.7
53699;BME280;39591;53.952;27.612;2022-12-07T19:44:43;1001.1;;;1.6;74.6
53699;BME280;39591;53.952;27.612;2022-12-07T19:49:45;1001.2;;;1.7;74.9
53699;BME280;39591;53.952;27.612;2022-12-07T19:54:23;1001.2;;;1.7;75.2
53699;BME280;39591;53.952;27.612;2022-12-07T19:59:13;1001.2;;;1.7;75.3
53699;BME280;39591;53.952;27.612;2022-12-07T20:04:57;1001.2;;;1.7;74.8
53699;BME280;39591;53.952;27.612;2022-12-07T20:09:49;1001.2;;;1.8;74.7
53699;BME280;39591;53.952;27.612;2022-12-07T20:14:13;1001.2;;;1.8;74.7
53699;BME280;39591;53.952;27.612;2022-12-07T20:19:13;1001.3;;;1.8;74.7
53699;BME280;39591;53.952;27.612;2022-12-07T20:24:14;1001.3;;;1.8;74.8
53699;BME280;39591;53.952;27.612;2022-12-07T20:29:55;1001.3;;;1.8;75.1
53699;BME280;39591;53.952;27.612;2022-12-07T20:34:33;1001.4;;;1.8;75.1
53699;BME280;39591;53.952;27.612;2022-12-07T20:39:57;1001.4;;;1.8;75
53699;BME280;39591;53.952;27.612;2022-12-07T20:44:23;1001.4;;;1.8;75
53699;BME280;39591;53.952;27.612;2022-12-07T20:49:23;1001.4;;;1.7;75.1
53699;BME280;39591;53.952;27.612;2022-12-07T20:54:23;1001.5;;;1.8;75.7
53699;BME280;39591;53.952;27.612;2022-12-07T20:59:43;1001.5;;;1.9;75.8
53699;BME280;39591;53.952;27.612;2022-12-07T21:04:57;1001.5;;;1.9;75.9
53699;BME280;39591;53.952;27.612;2022-12-07T21:09:25;1001.5;;;1.9;75.8
53699;BME280;39591;53.952;27.612;2022-12-07T21:14:13;1001.5;;;1.9;76.3
53699;BME280;39591;53.952;27.612;2022-12-07T21:19:59;1001.5;;;1.9;76.3
53699;BME280;39591;53.952;27.612;2022-12-07T21:24:27;1001.5;;;1.9;75.8
53699;BME280;39591;53.952;27.612;2022-12-07T21:29:33;1001.5;;;1.9;76.4
53699;BME280;39591;53.952;27.612;2022-12-07T21:34:13;1001.6;;;1.9;75.6
53699;BME280;39591;53.952;27.612;2022-12-07T21:39:13;1001.6;;;1.8;75.7
53699;BME280;39591;53.952;27.612;2022-12-07T21:44:53;1001.6;;;1.8;76.3
53699;BME280;39591;53.952;27.612;2022-12-07T21:49:31;1001.6;;;1.9;75.5
53699;BME280;39591;53.952;27.612;2022-12-07T21:54:55;1001.6;;;2;75.1
53699;BME280;39591;53.952;27.612;2022-12-07T21:59:21;1001.6;;;2;75.2
53699;BME280;39591;53.952;27.612;2022-12-07T22:04:14;1001.7;;;2;75.5
53699;BME280;39591;53.952;27.612;2022-12-07T22:09:19;1001.7;;;2;75.5
53699;BME280;39591;53.952;27.612;2022-12-07T22:14:37;1001.7;;;2.1;75.1
53699;BME280;39591;53.952;27.612;2022-12-07T22:19:41;1001.7;;;2.1;74.9
53699;BME280;39591;53.952;27.612;2022-12-07T22:24:55;1001.7;;;2.1;74.5
53699;BME280;39591;53.952;27.612;2022-12-07T22:29:13;1001.7;;;2.1;74.5
53699;BME280;39591;53.952;27.612;2022-12-07T22:34:53;1001.7;;;2;74.7
53699;BME280;39591;53.952;27.612;2022-12-07T22:39:55;1001.7;;;2.1;74.8
53699;BME280;39591;53.952;27.612;2022-12-07T22:44:27;1001.7;;;2.1;74.5
53699;BME280;39591;53.952;27.612;2022-12-07T22:49:35;1001.7;;;2.1;74.5
53699;BME280;39591;53.952;27.612;2022-12-07T22:54:13;1001.7;;;2.2;74.4
53699;BME280;39591;53.952;27.612;2022-12-07T22:59:53;1001.7;;;2.2;74.1
53699;BME280;39591;53.952;27.612;2022-12-07T23:04:29;1001.7;;;2.3;73.9
53699;BME280;39591;53.952;27.612;2022-12-07T23:09:39;1001.7;;;2.2;73.9
53699;BME280;39591;53.952;27.612;2022-12-07T23:14:28;1001.6;;;2.2;74.2
53699;BME280;39591;53.952;27.612;2022-12-07T23:19:13;1001.6;;;2.2;74
53699;BME280;39591;53.952;27.612;2022-12-07T23:24:29;1001.6;;;2.1;74.2
53699;BME280;39591;53.952;27.612;2022-12-07T23:29:39;1001.6;;;2.1;74.4
53699;BME280;39591;53.952;27.612;2022-12-07T23:34:43;1001.6;;;2.1;75.8
53699;BME280;39591;53.952;27.612;2022-12-07T23:39:41;1001.6;;;2.1;75.8
53699;BME280;39591;53.952;27.612;2022-12-07T23:44:19;1001.5;;;2.1;75.2
53699;BME280;39591;53.952;27.612;2022-12-07T23:49:51;1001.6;;;2.1;74.8
53699;BME280;39591;53.952;27.612;2022-12-07T23:54:53;1001.5;;;2.1;74.9
53699;BME280;39591;53.952;27.612;2022-12-07T23:59:21;1001.5;;;2.2;74.8
